createdAt,value
2018-06-13T00:00:39.593Z,1002.92
2018-06-13T00:01:39.594Z,1002.90
2018-06-13T00:02:39.591Z,1002.91
2018-06-13T00:03:39.590Z,1002.91
2018-06-13T00:04:39.590Z,1002.88
2018-06-13T00:05:39.587Z,1002.93
2018-06-13T00:06:39.585Z,1002.94
2018-06-13T00:07:39.584Z,1002.91
2018-06-13T00:08:39.579Z,1002.92
2018-06-13T00:09:39.579Z,1002.93
2018-06-13T00:10:39.577Z,1002.92
2018-06-13T00:11:39.575Z,1002.91
2018-06-13T00:12:39.572Z,1002.92
2018-06-13T00:13:39.570Z,1002.89
2018-06-13T00:14:39.571Z,1002.90
2018-06-13T00:15:39.568Z,1002.90
2018-06-13T00:16:39.563Z,1002.91
2018-06-13T00:17:39.562Z,1002.95
2018-06-13T00:18:39.562Z,1002.92
2018-06-13T00:19:39.559Z,1002.96
2018-06-13T00:20:39.561Z,1003.03
2018-06-13T00:21:39.558Z,1002.99
2018-06-13T00:22:39.552Z,1003.04
2018-06-13T00:23:39.551Z,1003.07
2018-06-13T00:24:39.549Z,1003.04
2018-06-13T00:25:39.547Z,1003.05
2018-06-13T00:26:39.546Z,1003.05
2018-06-13T00:27:39.544Z,1003.03
2018-06-13T00:28:39.543Z,1003.04
2018-06-13T00:29:39.540Z,1002.99
2018-06-13T00:30:39.538Z,1002.99
2018-06-13T00:31:39.539Z,1003.00
2018-06-13T00:32:39.584Z,1003.00
2018-06-13T00:33:39.547Z,1003.00
2018-06-13T00:34:39.537Z,1003.07
2018-06-13T00:35:39.533Z,1003.00
2018-06-13T00:36:39.530Z,1003.06
2018-06-13T00:37:39.525Z,1003.07
2018-06-13T00:38:39.524Z,1003.09
2018-06-13T00:39:39.521Z,1003.15
2018-06-13T00:40:39.520Z,1003.16
2018-06-13T00:41:39.520Z,1003.16
2018-06-13T00:42:39.518Z,1003.14
2018-06-13T00:43:39.514Z,1003.19
2018-06-13T00:44:39.512Z,1003.19
2018-06-13T00:45:39.511Z,1003.18
2018-06-13T00:46:39.509Z,1003.21
2018-06-13T00:47:39.507Z,1003.18
2018-06-13T00:48:39.505Z,1003.21
2018-06-13T00:49:39.504Z,1003.18
2018-06-13T00:50:39.503Z,1003.16
2018-06-13T00:51:39.501Z,1003.17
2018-06-13T00:52:39.498Z,1003.19
2018-06-13T00:53:39.498Z,1003.16
2018-06-13T00:54:39.494Z,1003.14
2018-06-13T00:55:39.493Z,1003.18
2018-06-13T00:56:39.490Z,1003.20
2018-06-13T00:57:39.490Z,1003.20
2018-06-13T00:58:39.488Z,1003.19
2018-06-13T00:59:39.486Z,1003.17
2018-06-13T01:00:39.483Z,1003.18
2018-06-13T01:01:39.483Z,1003.15
2018-06-13T01:02:39.481Z,1003.21
2018-06-13T01:03:39.478Z,1003.18
2018-06-13T01:04:39.480Z,1003.18
2018-06-13T01:05:39.477Z,1003.18
2018-06-13T01:06:39.480Z,1003.17
2018-06-13T01:07:39.468Z,1003.18
2018-06-13T01:08:39.468Z,1003.19
2018-06-13T01:09:39.467Z,1003.15
2018-06-13T01:10:39.464Z,1003.15
2018-06-13T01:11:39.465Z,1003.20
2018-06-13T01:12:39.461Z,1003.16
2018-06-13T01:13:39.459Z,1003.14
2018-06-13T01:14:39.456Z,1003.18
2018-06-13T01:15:39.459Z,1003.19
2018-06-13T01:16:39.450Z,1003.19
2018-06-13T01:17:39.451Z,1003.16
2018-06-13T01:18:39.450Z,1003.17
2018-06-13T01:19:39.447Z,1003.14
2018-06-13T01:20:39.444Z,1003.11
2018-06-13T01:21:39.441Z,1003.11
2018-06-13T01:22:39.441Z,1003.09
2018-06-13T01:23:39.441Z,1003.09
2018-06-13T01:24:39.436Z,1003.07
2018-06-13T01:25:39.436Z,1003.08
2018-06-13T01:26:39.435Z,1003.05
2018-06-13T01:27:39.430Z,1003.03
2018-06-13T01:28:39.429Z,1003.01
2018-06-13T01:29:39.427Z,1003.00
2018-06-13T01:30:39.428Z,1003.04
2018-06-13T01:31:39.422Z,1003.06
2018-06-13T01:32:39.420Z,1003.03
2018-06-13T01:33:39.421Z,1003.07
2018-06-13T01:34:39.417Z,1003.10
2018-06-13T01:35:39.416Z,1003.08
2018-06-13T01:36:39.412Z,1003.08
2018-06-13T01:37:39.411Z,1003.09
2018-06-13T01:38:39.409Z,1003.11
2018-06-13T01:39:39.408Z,1003.09
2018-06-13T01:40:39.405Z,1003.14
2018-06-13T01:41:39.404Z,1003.11
2018-06-13T01:42:39.401Z,1003.13
2018-06-13T01:43:39.398Z,1003.16
2018-06-13T01:44:39.395Z,1003.16
2018-06-13T01:45:39.395Z,1003.14
2018-06-13T01:46:39.392Z,1003.16
2018-06-13T01:47:39.390Z,1003.15
2018-06-13T01:48:39.387Z,1003.15
2018-06-13T01:49:39.385Z,1003.16
2018-06-13T01:50:39.383Z,1003.16
2018-06-13T01:51:39.380Z,1003.13
2018-06-13T01:52:39.379Z,1003.11
2018-06-13T01:53:39.379Z,1003.11
2018-06-13T01:54:39.376Z,1003.08
2018-06-13T01:55:39.375Z,1003.10
2018-06-13T01:56:39.375Z,1003.09
2018-06-13T01:57:39.372Z,1003.08
2018-06-13T01:58:39.368Z,1003.15
2018-06-13T01:59:39.364Z,1003.13
2018-06-13T02:00:39.364Z,1003.12
2018-06-13T02:01:39.364Z,1003.09
2018-06-13T02:02:39.360Z,1003.15
2018-06-13T02:03:39.358Z,1003.13
2018-06-13T02:04:39.355Z,1003.11
2018-06-13T02:05:39.358Z,1003.11
2018-06-13T02:06:39.353Z,1003.11
2018-06-13T02:07:39.349Z,1003.12
2018-06-13T02:08:39.348Z,1003.15
2018-06-13T02:09:39.345Z,1003.18
2018-06-13T02:10:39.343Z,1003.15
2018-06-13T02:11:39.342Z,1003.16
2018-06-13T02:12:39.338Z,1003.16
2018-06-13T02:13:39.337Z,1003.14
2018-06-13T02:14:39.334Z,1003.16
2018-06-13T02:15:39.336Z,1003.15
2018-06-13T02:16:39.330Z,1003.15
2018-06-13T02:17:39.327Z,1003.17
2018-06-13T02:18:39.325Z,1003.12
2018-06-13T02:19:39.323Z,1003.15
2018-06-13T02:20:39.320Z,1003.12
2018-06-13T02:21:39.319Z,1003.14
2018-06-13T02:22:39.317Z,1003.12
2018-06-13T02:23:39.314Z,1003.14
2018-06-13T02:24:39.311Z,1003.14
2018-06-13T02:25:39.315Z,1003.12
2018-06-13T02:26:39.311Z,1003.17
2018-06-13T02:27:39.308Z,1003.16
2018-06-13T02:28:39.303Z,1003.20
2018-06-13T02:29:39.300Z,1003.17
2018-06-13T02:30:39.294Z,1003.15
2018-06-13T02:31:39.296Z,1003.19
2018-06-13T02:32:39.294Z,1003.19
2018-06-13T02:33:39.293Z,1003.15
2018-06-13T02:34:39.291Z,1003.14
2018-06-13T02:35:39.289Z,1003.14
2018-06-13T02:36:39.285Z,1003.15
2018-06-13T02:37:39.285Z,1003.11
2018-06-13T02:38:39.284Z,1003.15
2018-06-13T02:39:39.277Z,1003.13
2018-06-13T02:40:39.278Z,1003.18
2018-06-13T02:41:39.274Z,1003.17
2018-06-13T02:42:39.273Z,1003.17
2018-06-13T02:43:39.272Z,1003.16
2018-06-13T02:44:39.307Z,1003.16
2018-06-13T02:45:39.272Z,1003.19
2018-06-13T02:46:39.261Z,1003.20
2018-06-13T02:47:39.259Z,1003.20
2018-06-13T02:48:39.258Z,1003.19
2018-06-13T02:49:39.254Z,1003.22
2018-06-13T02:50:39.250Z,1003.22
2018-06-13T02:51:39.248Z,1003.23
2018-06-13T02:52:39.246Z,1003.22
2018-06-13T02:53:39.246Z,1003.22
2018-06-13T02:54:39.242Z,1003.19
2018-06-13T02:55:39.238Z,1003.21
2018-06-13T02:56:39.238Z,1003.21
2018-06-13T02:57:39.234Z,1003.23
2018-06-13T02:58:39.231Z,1003.25
2018-06-13T02:59:39.233Z,1003.27
2018-06-13T03:00:39.271Z,1003.19
2018-06-13T03:01:39.223Z,1003.22
2018-06-13T03:02:39.222Z,1003.21
2018-06-13T03:03:39.219Z,1003.20
2018-06-13T03:04:39.215Z,1003.18
2018-06-13T03:05:39.213Z,1003.21
2018-06-13T03:06:39.213Z,1003.20
2018-06-13T03:07:39.209Z,1003.20
2018-06-13T03:08:39.204Z,1003.23
2018-06-13T03:09:39.203Z,1003.25
2018-06-13T03:10:39.200Z,1003.25
2018-06-13T03:11:39.199Z,1003.25
2018-06-13T03:12:39.198Z,1003.22
2018-06-13T03:13:39.193Z,1003.23
2018-06-13T03:14:39.190Z,1003.30
2018-06-13T03:15:39.189Z,1003.33
2018-06-13T03:16:39.185Z,1003.32
2018-06-13T03:17:39.182Z,1003.32
2018-06-13T03:18:39.179Z,1003.34
2018-06-13T03:19:39.179Z,1003.32
2018-06-13T03:20:39.175Z,1003.34
2018-06-13T03:21:39.178Z,1003.31
2018-06-13T03:22:39.176Z,1003.31
2018-06-13T03:23:39.169Z,1003.34
2018-06-13T03:24:39.165Z,1003.37
2018-06-13T03:25:39.163Z,1003.31
2018-06-13T03:26:39.159Z,1003.35
2018-06-13T03:27:39.160Z,1003.35
2018-06-13T03:28:39.157Z,1003.37
2018-06-13T03:29:39.154Z,1003.37
2018-06-13T03:30:39.151Z,1003.35
2018-06-13T03:31:39.152Z,1003.36
2018-06-13T03:32:39.151Z,1003.35
2018-06-13T03:33:39.147Z,1003.38
2018-06-13T03:34:39.143Z,1003.38
2018-06-13T03:35:39.140Z,1003.37
2018-06-13T03:36:39.138Z,1003.40
2018-06-13T03:37:39.139Z,1003.42
2018-06-13T03:38:39.133Z,1003.42
2018-06-13T03:39:39.130Z,1003.46
2018-06-13T03:40:39.129Z,1003.40
2018-06-13T03:41:39.122Z,1003.41
2018-06-13T03:42:39.124Z,1003.40
2018-06-13T03:43:39.125Z,1003.43
2018-06-13T03:44:39.119Z,1003.41
2018-06-13T03:45:39.115Z,1003.43
2018-06-13T03:46:39.113Z,1003.44
2018-06-13T03:47:39.110Z,1003.48
2018-06-13T03:48:39.106Z,1003.46
2018-06-13T03:49:39.104Z,1003.51
2018-06-13T03:50:39.101Z,1003.51
2018-06-13T03:51:39.100Z,1003.54
2018-06-13T03:52:39.097Z,1003.53
2018-06-13T03:53:39.099Z,1003.52
2018-06-13T03:54:39.092Z,1003.56
2018-06-13T03:55:39.088Z,1003.56
2018-06-13T03:56:39.086Z,1003.58
2018-06-13T03:57:39.085Z,1003.60
2018-06-13T03:58:39.081Z,1003.62
2018-06-13T03:59:39.082Z,1003.61
2018-06-13T04:00:39.075Z,1003.62
2018-06-13T04:01:39.073Z,1003.64
2018-06-13T04:02:39.069Z,1003.66
2018-06-13T04:03:39.068Z,1003.64
2018-06-13T04:04:39.064Z,1003.69
2018-06-13T04:05:39.062Z,1003.72
2018-06-13T04:06:39.062Z,1003.75
2018-06-13T04:07:39.049Z,1003.76
2018-06-13T04:08:39.050Z,1003.73
2018-06-13T04:09:39.041Z,1003.79
2018-06-13T04:10:39.060Z,1003.77
2018-06-13T04:11:39.047Z,1003.80
2018-06-13T04:12:39.041Z,1003.82
2018-06-13T04:13:39.083Z,1003.85
2018-06-13T04:14:39.038Z,1003.84
2018-06-13T04:15:39.037Z,1003.86
2018-06-13T04:16:39.031Z,1003.86
2018-06-13T04:17:39.030Z,1003.89
2018-06-13T04:18:39.027Z,1003.84
2018-06-13T04:19:39.042Z,1003.83
2018-06-13T04:20:39.022Z,1003.87
2018-06-13T04:21:39.019Z,1003.91
2018-06-13T04:22:39.016Z,1003.88
2018-06-13T04:23:39.013Z,1003.87
2018-06-13T04:24:39.016Z,1003.89
2018-06-13T04:25:39.007Z,1003.90
2018-06-13T04:26:39.004Z,1003.89
2018-06-13T04:27:39.001Z,1003.93
2018-06-13T04:28:39.001Z,1003.92
2018-06-13T04:29:38.996Z,1003.91
2018-06-13T04:30:38.995Z,1003.93
2018-06-13T04:31:38.995Z,1003.91
2018-06-13T04:32:39.050Z,1003.89
2018-06-13T04:33:38.985Z,1003.88
2018-06-13T04:34:38.979Z,1003.89
2018-06-13T04:35:38.975Z,1003.90
2018-06-13T04:36:38.975Z,1003.88
2018-06-13T04:37:38.976Z,1003.87
2018-06-13T04:38:38.971Z,1003.89
2018-06-13T04:39:38.968Z,1003.90
2018-06-13T04:40:38.958Z,1003.89
2018-06-13T04:41:38.963Z,1003.91
2018-06-13T04:42:38.957Z,1003.91
2018-06-13T04:43:38.956Z,1003.91
2018-06-13T04:44:38.955Z,1003.91
2018-06-13T04:45:38.953Z,1003.90
2018-06-13T04:46:38.948Z,1003.91
2018-06-13T04:47:38.947Z,1003.95
2018-06-13T04:48:38.961Z,1003.91
2018-06-13T04:49:38.934Z,1003.94
2018-06-13T04:50:38.936Z,1003.98
2018-06-13T04:51:38.930Z,1003.97
2018-06-13T04:52:38.938Z,1003.94
2018-06-13T04:53:38.927Z,1003.98
2018-06-13T04:54:38.927Z,1004.00
2018-06-13T04:55:38.944Z,1004.00
2018-06-13T04:56:38.921Z,1004.00
2018-06-13T04:57:38.913Z,1004.07
2018-06-13T04:58:38.911Z,1004.06
2018-06-13T04:59:38.910Z,1004.07
2018-06-13T05:00:38.907Z,1004.09
2018-06-13T05:01:38.919Z,1004.08
2018-06-13T05:02:38.902Z,1004.11
2018-06-13T05:03:38.890Z,1004.10
2018-06-13T05:04:38.894Z,1004.11
2018-06-13T05:05:38.885Z,1004.12
2018-06-13T05:06:38.891Z,1004.17
2018-06-13T05:07:38.886Z,1004.17
2018-06-13T05:08:38.887Z,1004.18
2018-06-13T05:09:38.881Z,1004.18
2018-06-13T05:10:38.874Z,1004.18
2018-06-13T05:11:38.872Z,1004.24
2018-06-13T05:12:38.867Z,1004.21
2018-06-13T05:13:38.866Z,1004.19
2018-06-13T05:14:38.865Z,1004.25
2018-06-13T05:15:38.864Z,1004.21
2018-06-13T05:16:38.864Z,1004.24
2018-06-13T05:17:38.856Z,1004.30
2018-06-13T05:18:38.856Z,1004.24
2018-06-13T05:19:38.851Z,1004.29
2018-06-13T05:20:38.851Z,1004.27
2018-06-13T05:21:38.846Z,1004.23
2018-06-13T05:22:38.844Z,1004.21
2018-06-13T05:23:38.843Z,1004.22
2018-06-13T05:24:38.835Z,1004.24
2018-06-13T05:25:38.838Z,1004.22
2018-06-13T05:26:38.833Z,1004.22
2018-06-13T05:27:38.830Z,1004.19
2018-06-13T05:28:38.853Z,1004.23
2018-06-13T05:29:38.816Z,1004.20
2018-06-13T05:30:38.814Z,1004.21
2018-06-13T05:31:38.820Z,1004.26
2018-06-13T05:32:38.817Z,1004.26
2018-06-13T05:33:38.811Z,1004.26
2018-06-13T05:34:38.809Z,1004.28
2018-06-13T05:35:38.804Z,1004.30
2018-06-13T05:36:38.802Z,1004.31
2018-06-13T05:37:38.799Z,1004.31
2018-06-13T05:38:38.801Z,1004.32
2018-06-13T05:39:38.792Z,1004.32
2018-06-13T05:40:38.785Z,1004.28
2018-06-13T05:41:38.789Z,1004.29
2018-06-13T05:42:38.782Z,1004.32
2018-06-13T05:43:38.780Z,1004.34
2018-06-13T05:44:38.774Z,1004.32
2018-06-13T05:45:38.773Z,1004.37
2018-06-13T05:46:38.767Z,1004.42
2018-06-13T05:47:38.771Z,1004.36
2018-06-13T05:48:38.764Z,1004.38
2018-06-13T05:49:38.761Z,1004.43
2018-06-13T05:50:38.755Z,1004.41
2018-06-13T05:51:38.751Z,1004.44
2018-06-13T05:52:38.749Z,1004.43
2018-06-13T05:53:38.750Z,1004.40
2018-06-13T05:54:38.744Z,1004.41
2018-06-13T05:55:38.743Z,1004.43
2018-06-13T05:56:38.736Z,1004.42
2018-06-13T05:57:38.737Z,1004.50
2018-06-13T05:58:38.732Z,1004.43
2018-06-13T05:59:38.729Z,1004.40
2018-06-13T06:00:38.721Z,1004.43
2018-06-13T06:01:38.730Z,1004.50
2018-06-13T06:02:38.717Z,1004.54
2018-06-13T06:03:38.718Z,1004.52
2018-06-13T06:04:38.709Z,1004.52
2018-06-13T06:05:38.710Z,1004.54
2018-06-13T06:06:38.715Z,1004.61
2018-06-13T06:07:38.698Z,1004.62
2018-06-13T06:08:38.700Z,1004.65
2018-06-13T06:09:38.693Z,1004.63
2018-06-13T06:10:38.691Z,1004.59
2018-06-13T06:11:38.699Z,1004.57
2018-06-13T06:12:38.689Z,1004.61
2018-06-13T06:13:38.681Z,1004.58
2018-06-13T06:14:38.674Z,1004.54
2018-06-13T06:15:38.676Z,1004.49
2018-06-13T06:16:38.674Z,1004.57
2018-06-13T06:17:38.670Z,1004.54
2018-06-13T06:18:38.666Z,1004.59
2018-06-13T06:19:38.669Z,1004.60
2018-06-13T06:20:38.661Z,1004.58
2018-06-13T06:21:38.655Z,1004.55
2018-06-13T06:22:38.660Z,1004.65
2018-06-13T06:23:38.722Z,1004.60
2018-06-13T06:24:38.648Z,1004.65
2018-06-13T06:25:38.648Z,1004.62
2018-06-13T06:26:38.645Z,1004.66
2018-06-13T06:27:38.640Z,1004.72
2018-06-13T06:28:38.636Z,1004.76
2018-06-13T06:29:38.635Z,1004.70
2018-06-13T06:30:38.629Z,1004.69
2018-06-13T06:31:38.632Z,1004.75
2018-06-13T06:32:38.629Z,1004.82
2018-06-13T06:33:38.619Z,1004.79
2018-06-13T06:34:38.618Z,1004.80
2018-06-13T06:35:38.616Z,1004.77
2018-06-13T06:36:38.609Z,1004.81
2018-06-13T06:37:38.616Z,1004.80
2018-06-13T06:38:38.604Z,1004.87
2018-06-13T06:39:38.604Z,1004.82
2018-06-13T06:40:38.595Z,1004.87
2018-06-13T06:41:38.599Z,1004.88
2018-06-13T06:42:38.591Z,1004.82
2018-06-13T06:43:38.591Z,1004.82
2018-06-13T06:44:38.586Z,1004.85
2018-06-13T06:45:38.580Z,1004.84
2018-06-13T06:46:38.578Z,1004.81
2018-06-13T06:47:38.575Z,1004.80
2018-06-13T06:48:38.572Z,1004.82
2018-06-13T06:49:38.604Z,1004.85
2018-06-13T06:50:38.565Z,1004.86
2018-06-13T06:51:38.565Z,1004.85
2018-06-13T06:52:38.563Z,1004.89
2018-06-13T06:53:38.560Z,1004.96
2018-06-13T06:54:38.552Z,1004.87
2018-06-13T06:55:38.632Z,1004.92
2018-06-13T06:56:38.546Z,1004.96
2018-06-13T06:57:38.545Z,1004.90
2018-06-13T06:58:38.541Z,1005.02
2018-06-13T06:59:38.538Z,1004.96
2018-06-13T07:00:38.535Z,1004.90
2018-06-13T07:01:38.533Z,1004.94
2018-06-13T07:02:38.528Z,1004.95
2018-06-13T07:03:38.522Z,1005.01
2018-06-13T07:04:38.518Z,1004.98
2018-06-13T07:05:38.516Z,1005.02
2018-06-13T07:06:38.517Z,1004.96
2018-06-13T07:07:38.513Z,1004.95
2018-06-13T07:08:38.511Z,1005.02
2018-06-13T07:09:38.503Z,1005.10
2018-06-13T07:10:38.501Z,1005.05
2018-06-13T07:11:38.511Z,1004.99
2018-06-13T07:12:38.497Z,1005.05
2018-06-13T07:13:38.496Z,1005.09
2018-06-13T07:14:38.493Z,1005.08
2018-06-13T07:15:38.492Z,1005.14
2018-06-13T07:16:38.488Z,1005.15
2018-06-13T07:17:38.528Z,1005.10
2018-06-13T07:18:38.484Z,1005.14
2018-06-13T07:19:38.484Z,1005.10
2018-06-13T07:20:38.479Z,1005.14
2018-06-13T07:21:38.477Z,1005.14
2018-06-13T07:22:38.475Z,1005.19
2018-06-13T07:23:38.474Z,1005.17
2018-06-13T07:24:38.518Z,1005.14
2018-06-13T07:25:38.470Z,1005.11
2018-06-13T07:26:38.468Z,1005.12
2018-06-13T07:27:38.464Z,1005.07
2018-06-13T07:28:38.461Z,1005.07
2018-06-13T07:29:38.459Z,1005.06
2018-06-13T07:30:38.460Z,1005.05
2018-06-13T07:31:38.458Z,1005.03
2018-06-13T07:32:38.453Z,1005.02
2018-06-13T07:33:38.460Z,1005.03
2018-06-13T07:34:38.449Z,1005.03
2018-06-13T07:35:38.448Z,1005.05
2018-06-13T07:36:38.445Z,1005.03
2018-06-13T07:37:38.444Z,1005.02
2018-06-13T07:38:38.441Z,1005.05
2018-06-13T07:39:38.437Z,1005.13
2018-06-13T07:40:38.437Z,1005.05
2018-06-13T07:41:38.434Z,1005.13
2018-06-13T07:42:38.433Z,1005.07
2018-06-13T07:43:38.429Z,1005.18
2018-06-13T07:44:38.432Z,1005.16
2018-06-13T07:45:38.429Z,1005.18
2018-06-13T07:46:38.426Z,1005.16
2018-06-13T07:47:38.422Z,1005.19
2018-06-13T07:48:38.418Z,1005.22
2018-06-13T07:49:38.445Z,1005.27
2018-06-13T07:50:38.414Z,1005.31
2018-06-13T07:51:38.415Z,1005.33
2018-06-13T07:52:38.409Z,1005.35
2018-06-13T07:53:38.408Z,1005.33
2018-06-13T07:54:38.406Z,1005.30
2018-06-13T07:55:38.406Z,1005.35
2018-06-13T07:56:38.405Z,1005.39
2018-06-13T07:57:38.399Z,1005.40
2018-06-13T07:58:38.404Z,1005.39
2018-06-13T07:59:38.397Z,1005.40
2018-06-13T08:00:38.393Z,1005.42
2018-06-13T08:01:38.392Z,1005.35
2018-06-13T08:02:38.388Z,1005.31
2018-06-13T08:03:38.388Z,1005.34
2018-06-13T08:04:38.386Z,1005.33
2018-06-13T08:05:38.390Z,1005.39
2018-06-13T08:06:38.386Z,1005.40
2018-06-13T08:07:38.381Z,1005.41
2018-06-13T08:08:38.510Z,1005.38
2018-06-13T08:09:38.380Z,1005.39
2018-06-13T08:10:38.377Z,1005.35
2018-06-13T08:11:38.375Z,1005.42
2018-06-13T08:12:38.376Z,1005.41
2018-06-13T08:13:38.371Z,1005.36
2018-06-13T08:14:38.372Z,1005.35
2018-06-13T08:15:38.370Z,1005.37
2018-06-13T08:16:38.368Z,1005.36
2018-06-13T08:17:38.366Z,1005.41
2018-06-13T08:18:38.366Z,1005.35
2018-06-13T08:19:38.367Z,1005.31
2018-06-13T08:20:38.365Z,1005.37
2018-06-13T08:21:38.363Z,1005.36
2018-06-13T08:22:38.362Z,1005.35
2018-06-13T08:23:38.359Z,1005.35
2018-06-13T08:24:38.355Z,1005.35
2018-06-13T08:25:38.356Z,1005.37
2018-06-13T08:26:38.353Z,1005.39
2018-06-13T08:27:38.350Z,1005.45
2018-06-13T08:28:38.349Z,1005.39
2018-06-13T08:29:38.345Z,1005.44
2018-06-13T08:30:38.344Z,1005.40
2018-06-13T08:31:38.344Z,1005.48
2018-06-13T08:32:38.345Z,1005.43
2018-06-13T08:33:38.352Z,1005.44
2018-06-13T08:34:38.340Z,1005.44
2018-06-13T08:35:38.340Z,1005.42
2018-06-13T08:36:38.338Z,1005.39
2018-06-13T08:37:38.335Z,1005.44
2018-06-13T08:38:38.333Z,1005.41
2018-06-13T08:39:38.338Z,1005.41
2018-06-13T08:40:38.337Z,1005.48
2018-06-13T08:41:38.334Z,1005.41
2018-06-13T08:42:38.328Z,1005.46
2018-06-13T08:43:38.327Z,1005.44
2018-06-13T08:44:38.324Z,1005.46
2018-06-13T08:45:38.326Z,1005.45
2018-06-13T08:46:38.325Z,1005.50
2018-06-13T08:47:38.323Z,1005.51
2018-06-13T08:48:38.343Z,1005.51
2018-06-13T08:49:38.318Z,1005.49
2018-06-13T08:50:38.319Z,1005.53
2018-06-13T08:51:38.316Z,1005.55
2018-06-13T08:52:38.318Z,1005.59
2018-06-13T08:53:38.313Z,1005.56
2018-06-13T08:54:38.312Z,1005.57
2018-06-13T08:55:38.317Z,1005.56
2018-06-13T08:56:38.311Z,1005.53
2018-06-13T08:57:38.309Z,1005.57
2018-06-13T08:58:38.308Z,1005.57
2018-06-13T08:59:38.307Z,1005.62
2018-06-13T09:00:38.305Z,1005.59
2018-06-13T09:01:38.304Z,1005.60
2018-06-13T09:02:38.302Z,1005.63
2018-06-13T09:03:38.303Z,1005.62
2018-06-13T09:04:38.300Z,1005.62
2018-06-13T09:05:38.298Z,1005.63
2018-06-13T09:06:38.298Z,1005.62
2018-06-13T09:07:38.297Z,1005.61
2018-06-13T09:08:38.296Z,1005.63
2018-06-13T09:09:38.296Z,1005.64
2018-06-13T09:10:38.296Z,1005.67
2018-06-13T09:11:38.293Z,1005.65
2018-06-13T09:12:38.292Z,1005.70
2018-06-13T09:13:38.291Z,1005.68
2018-06-13T09:14:38.293Z,1005.69
2018-06-13T09:15:38.289Z,1005.72
2018-06-13T09:16:38.286Z,1005.69
2018-06-13T09:17:38.287Z,1005.71
2018-06-13T09:18:38.286Z,1005.67
2018-06-13T09:19:38.291Z,1005.74
2018-06-13T09:20:38.284Z,1005.74
2018-06-13T09:21:38.284Z,1005.76
2018-06-13T09:22:38.283Z,1005.75
2018-06-13T09:23:38.280Z,1005.77
2018-06-13T09:24:38.279Z,1005.73
2018-06-13T09:25:38.285Z,1005.73
2018-06-13T09:26:38.281Z,1005.77
2018-06-13T09:27:38.282Z,1005.79
2018-06-13T09:28:38.273Z,1005.74
2018-06-13T09:29:38.271Z,1005.75
2018-06-13T09:30:38.272Z,1005.78
2018-06-13T09:31:38.270Z,1005.82
2018-06-13T09:32:38.267Z,1005.82
2018-06-13T09:33:38.266Z,1005.80
2018-06-13T09:34:38.266Z,1005.76
2018-06-13T09:35:38.267Z,1005.82
2018-06-13T09:36:38.265Z,1005.84
2018-06-13T09:37:38.416Z,1005.80
2018-06-13T09:38:38.261Z,1005.77
2018-06-13T09:39:38.263Z,1005.86
2018-06-13T09:40:38.256Z,1005.87
2018-06-13T09:41:38.256Z,1005.85
2018-06-13T09:42:38.252Z,1005.86
2018-06-13T09:43:38.253Z,1005.88
2018-06-13T09:44:38.251Z,1005.93
2018-06-13T09:45:38.250Z,1005.90
2018-06-13T09:46:38.249Z,1005.93
2018-06-13T09:47:38.246Z,1005.99
2018-06-13T09:48:38.248Z,1005.93
2018-06-13T09:49:38.246Z,1005.97
2018-06-13T09:50:38.242Z,1005.96
2018-06-13T09:51:38.244Z,1005.93
2018-06-13T09:52:38.237Z,1005.94
2018-06-13T09:53:38.237Z,1005.96
2018-06-13T09:54:38.235Z,1005.98
2018-06-13T09:55:38.235Z,1006.01
2018-06-13T09:56:38.236Z,1005.99
2018-06-13T09:57:38.231Z,1005.98
2018-06-13T09:58:38.232Z,1006.05
2018-06-13T09:59:38.232Z,1006.05
2018-06-13T10:00:38.227Z,1006.06
2018-06-13T10:01:38.237Z,1006.09
2018-06-13T10:02:38.226Z,1006.06
2018-06-13T10:03:38.227Z,1006.09
2018-06-13T10:04:38.280Z,1006.16
2018-06-13T10:05:38.223Z,1006.16
2018-06-13T10:06:38.223Z,1006.14
2018-06-13T10:07:38.221Z,1006.23
2018-06-13T10:08:38.269Z,1006.21
2018-06-13T10:09:38.219Z,1006.19
2018-06-13T10:10:38.219Z,1006.24
2018-06-13T10:11:38.218Z,1006.21
2018-06-13T10:12:38.216Z,1006.22
2018-06-13T10:13:38.217Z,1006.25
2018-06-13T10:14:38.215Z,1006.26
2018-06-13T10:15:38.219Z,1006.26
2018-06-13T10:16:38.215Z,1006.30
2018-06-13T10:17:38.264Z,1006.23
2018-06-13T10:18:38.218Z,1006.21
2018-06-13T10:19:38.214Z,1006.15
2018-06-13T10:20:38.242Z,1006.19
2018-06-13T10:21:38.215Z,1006.16
2018-06-13T10:22:38.214Z,1006.17
2018-06-13T10:23:38.212Z,1006.15
2018-06-13T10:24:38.213Z,1006.15
2018-06-13T10:25:38.213Z,1006.18
2018-06-13T10:26:38.260Z,1006.09
2018-06-13T10:27:38.212Z,1006.07
2018-06-13T10:28:38.212Z,1006.06
2018-06-13T10:29:38.214Z,1006.13
2018-06-13T10:30:38.213Z,1006.05
2018-06-13T10:31:38.212Z,1006.08
2018-06-13T10:32:38.212Z,1006.03
2018-06-13T10:33:38.213Z,1006.06
2018-06-13T10:34:38.211Z,1005.99
2018-06-13T10:35:38.209Z,1006.02
2018-06-13T10:36:38.208Z,1006.03
2018-06-13T10:37:38.209Z,1006.01
2018-06-13T10:38:38.209Z,1006.00
2018-06-13T10:39:38.209Z,1006.03
2018-06-13T10:40:38.206Z,1006.02
2018-06-13T10:41:38.206Z,1006.02
2018-06-13T10:42:38.205Z,1006.03
2018-06-13T10:43:38.207Z,1006.08
2018-06-13T10:44:38.207Z,1006.00
2018-06-13T10:45:38.206Z,1006.03
2018-06-13T10:46:38.209Z,1006.01
2018-06-13T10:47:38.201Z,1006.02
2018-06-13T10:48:38.201Z,1006.06
2018-06-13T10:49:38.199Z,1006.02
2018-06-13T10:50:38.204Z,1006.15
2018-06-13T10:51:38.199Z,1006.14
2018-06-13T10:52:38.195Z,1006.11
2018-06-13T10:53:38.196Z,1006.16
2018-06-13T10:54:38.197Z,1006.16
2018-06-13T10:55:38.243Z,1006.19
2018-06-13T10:56:38.193Z,1006.16
2018-06-13T10:57:38.193Z,1006.15
2018-06-13T10:58:38.191Z,1006.18
2018-06-13T10:59:38.192Z,1006.17
2018-06-13T11:00:38.190Z,1006.19
2018-06-13T11:01:38.192Z,1006.17
2018-06-13T11:02:38.193Z,1006.18
2018-06-13T11:03:38.190Z,1006.17
2018-06-13T11:04:38.223Z,1006.21
2018-06-13T11:05:38.189Z,1006.17
2018-06-13T11:06:38.191Z,1006.20
2018-06-13T11:07:38.188Z,1006.16
2018-06-13T11:08:38.188Z,1006.20
2018-06-13T11:09:38.187Z,1006.19
2018-06-13T11:10:38.187Z,1006.19
2018-06-13T11:11:38.188Z,1006.21
2018-06-13T11:12:38.185Z,1006.20
2018-06-13T11:13:38.188Z,1006.24
2018-06-13T11:14:38.192Z,1006.27
2018-06-13T11:15:38.197Z,1006.28
2018-06-13T11:16:38.186Z,1006.27
2018-06-13T11:17:38.186Z,1006.24
2018-06-13T11:18:38.185Z,1006.26
2018-06-13T11:19:38.187Z,1006.28
2018-06-13T11:20:38.186Z,1006.29
2018-06-13T11:21:38.190Z,1006.27
2018-06-13T11:22:38.186Z,1006.27
2018-06-13T11:23:38.187Z,1006.27
2018-06-13T11:24:38.185Z,1006.25
2018-06-13T11:25:38.189Z,1006.29
2018-06-13T11:26:38.189Z,1006.29
2018-06-13T11:27:38.187Z,1006.29
2018-06-13T11:28:38.187Z,1006.30
2018-06-13T11:29:38.189Z,1006.27
2018-06-13T11:30:38.185Z,1006.32
2018-06-13T11:31:38.231Z,1006.30
2018-06-13T11:32:38.185Z,1006.29
2018-06-13T11:33:38.185Z,1006.27
2018-06-13T11:34:38.186Z,1006.31
2018-06-13T11:35:38.186Z,1006.29
2018-06-13T11:36:38.188Z,1006.28
2018-06-13T11:37:38.193Z,1006.27
2018-06-13T11:38:38.188Z,1006.19
2018-06-13T11:39:38.187Z,1006.18
2018-06-13T11:40:38.188Z,1006.14
2018-06-13T11:41:38.190Z,1006.19
2018-06-13T11:42:38.187Z,1006.16
2018-06-13T11:43:38.189Z,1006.10
2018-06-13T11:44:38.188Z,1006.14
2018-06-13T11:45:38.191Z,1006.14
2018-06-13T11:46:38.191Z,1006.13
2018-06-13T11:47:38.192Z,1006.17
2018-06-13T11:48:38.190Z,1006.22
2018-06-13T11:49:38.190Z,1006.20
2018-06-13T11:50:38.191Z,1006.21
2018-06-13T11:51:38.190Z,1006.19
2018-06-13T11:52:38.190Z,1006.20
2018-06-13T11:53:38.203Z,1006.18
2018-06-13T11:54:38.192Z,1006.22
2018-06-13T11:55:38.191Z,1006.24
2018-06-13T11:56:38.193Z,1006.22
2018-06-13T11:57:38.192Z,1006.24
2018-06-13T11:58:38.194Z,1006.27
2018-06-13T11:59:38.193Z,1006.26
2018-06-13T12:00:38.192Z,1006.22
2018-06-13T12:01:38.229Z,1006.25
2018-06-13T12:02:38.195Z,1006.25
2018-06-13T12:03:38.197Z,1006.25
2018-06-13T12:04:38.196Z,1006.26
2018-06-13T12:05:38.194Z,1006.29